sensor_id;sensor_type;location;lat;lon;timestamp;pressure;altitude;pressure_sealevel;temperature;humidity
52343;BME280;38277;51.972;4.624;2023-02-11T00:04:30;103620.0;;;9.1;76.0
52343;BME280;38277;51.972;4.624;2023-02-11T00:08:51;103600.0;;;9.0;76.0
52343;BME280;38277;51.972;4.624;2023-02-11T00:13:37;103600.0;;;9.0;76.0
52343;BME280;38277;51.972;4.624;2023-02-11T00:22:33;103600.0;;;9.0;76.0
52343;BME280;38277;51.972;4.624;2023-02-11T00:26:51;103590.0;;;9.0;76.0
52343;BME280;38277;51.972;4.624;2023-02-11T00:31:31;103600.0;;;9.0;75.5
52343;BME280;38277;51.972;4.624;2023-02-11T00:36:07;103590.0;;;9.0;75.5
52343;BME280;38277;51.972;4.624;2023-02-11T00:40:19;103590.0;;;8.9;75.5
52343;BME280;38277;51.972;4.624;2023-02-11T00:45:09;103570.0;;;8.9;75.5
52343;BME280;38277;51.972;4.624;2023-02-11T00:49:41;103570.0;;;8.9;76.0
52343;BME280;38277;51.972;4.624;2023-02-11T00:58:26;103580.0;;;8.9;75.5
52343;BME280;38277;51.972;4.624;2023-02-11T01:03:12;103580.0;;;8.9;76.0
52343;BME280;38277;51.972;4.624;2023-02-11T01:07:24;103580.0;;;8.9;75.5
52343;BME280;38277;51.972;4.624;2023-02-11T01:11:55;103590.0;;;8.9;75.5
52343;BME280;38277;51.972;4.624;2023-02-11T01:16:29;103590.0;;;8.9;75.5
52343;BME280;38277;51.972;4.624;2023-02-11T01:20:55;103580.0;;;9.0;75.5
52343;BME280;38277;51.972;4.624;2023-02-11T01:34:15;103570.0;;;9.0;76.0
52343;BME280;38277;51.972;4.624;2023-02-11T01:39:11;103570.0;;;8.9;76.0
52343;BME280;38277;51.972;4.624;2023-02-11T01:47:52;103560.0;;;8.8;76.5
52343;BME280;38277;51.972;4.624;2023-02-11T01:52:22;103560.0;;;8.7;77.0
52343;BME280;38277;51.972;4.624;2023-02-11T01:57:14;103560.0;;;8.6;77.0
52343;BME280;38277;51.972;4.624;2023-02-11T02:01:38;103560.0;;;8.5;77.5
52343;BME280;38277;51.972;4.624;2023-02-11T02:10:26;103570.0;;;8.3;78.5
52343;BME280;38277;51.972;4.624;2023-02-11T02:15:19;103560.0;;;8.3;79.0
52343;BME280;38277;51.972;4.624;2023-02-11T02:26:53;103560.0;;;8.2;79.5
52343;BME280;38277;51.972;4.624;2023-02-11T02:32:38;103550.0;;;8.1;80.0
52343;BME280;38277;51.972;4.624;2023-02-11T02:36:06;103560.0;;;8.1;80.5
52343;BME280;38277;51.972;4.624;2023-02-11T02:39:36;103570.0;;;8.0;80.5
52343;BME280;38277;51.972;4.624;2023-02-11T02:46:33;103580.0;;;8.0;81.5
52343;BME280;38277;51.972;4.624;2023-02-11T02:50:58;103570.0;;;8.0;81.5
52343;BME280;38277;51.972;4.624;2023-02-11T02:56:21;103580.0;;;7.9;82.0
52343;BME280;38277;51.972;4.624;2023-02-11T03:06:07;103560.0;;;7.8;82.5
52343;BME280;38277;51.972;4.624;2023-02-11T03:10:03;103570.0;;;7.7;83.0
52343;BME280;38277;51.972;4.624;2023-02-11T03:13:38;103560.0;;;7.6;83.0
52343;BME280;38277;51.972;4.624;2023-02-11T03:22:29;103570.0;;;7.5;84.0
52343;BME280;38277;51.972;4.624;2023-02-11T03:26:53;103560.0;;;7.5;84.5
52343;BME280;38277;51.972;4.624;2023-02-11T03:31:50;103560.0;;;7.4;84.5
52343;BME280;38277;51.972;4.624;2023-02-11T03:36:23;103560.0;;;7.4;85.0
52343;BME280;38277;51.972;4.624;2023-02-11T03:40:43;103550.0;;;7.3;85.5
52343;BME280;38277;51.972;4.624;2023-02-11T03:45:00;103550.0;;;7.3;86.0
52343;BME280;38277;51.972;4.624;2023-02-11T03:49:27;103550.0;;;7.3;86.0
52343;BME280;38277;51.972;4.624;2023-02-11T03:58:18;103540.0;;;7.2;86.5
52343;BME280;38277;51.972;4.624;2023-02-11T04:03:00;103540.0;;;7.2;86.5
52343;BME280;38277;51.972;4.624;2023-02-11T04:12:09;103550.0;;;7.2;87.5
52343;BME280;38277;51.972;4.624;2023-02-11T04:16:16;103550.0;;;7.2;87.5
52343;BME280;38277;51.972;4.624;2023-02-11T04:21:11;103550.0;;;7.2;87.5
52343;BME280;38277;51.972;4.624;2023-02-11T04:25:35;103550.0;;;7.2;88.0
52343;BME280;38277;51.972;4.624;2023-02-11T04:34:23;103550.0;;;7.2;88.0
52343;BME280;38277;51.972;4.624;2023-02-11T04:39:14;103540.0;;;7.1;88.0
52343;BME280;38277;51.972;4.624;2023-02-11T04:43:23;103540.0;;;7.1;88.5
52343;BME280;38277;51.972;4.624;2023-02-11T04:47:53;103540.0;;;7.2;89.0
52343;BME280;38277;51.972;4.624;2023-02-11T04:52:39;103540.0;;;7.2;89.0
52343;BME280;38277;51.972;4.624;2023-02-11T04:57:09;103540.0;;;7.2;89.5
52343;BME280;38277;51.972;4.624;2023-02-11T05:01:21;103540.0;;;7.3;89.5
52343;BME280;38277;51.972;4.624;2023-02-11T05:10:39;103530.0;;;7.3;90.0
52343;BME280;38277;51.972;4.624;2023-02-11T05:14:52;103530.0;;;7.4;90.0
52343;BME280;38277;51.972;4.624;2023-02-11T05:19:25;103540.0;;;7.5;90.5
52343;BME280;38277;51.972;4.624;2023-02-11T05:23:58;103550.0;;;7.5;90.5
52343;BME280;38277;51.972;4.624;2023-02-11T05:28:28;103550.0;;;7.5;90.5
52343;BME280;38277;51.972;4.624;2023-02-11T05:33:11;103560.0;;;7.5;90.5
52343;BME280;38277;51.972;4.624;2023-02-11T05:37:38;103570.0;;;7.6;90.5
52343;BME280;38277;51.972;4.624;2023-02-11T05:46:35;103560.0;;;7.6;90.5
52343;BME280;38277;51.972;4.624;2023-02-11T05:50:52;103560.0;;;7.6;90.5
52343;BME280;38277;51.972;4.624;2023-02-11T05:55:36;103570.0;;;7.6;91.0
52343;BME280;38277;51.972;4.624;2023-02-11T06:00:01;103560.0;;;7.6;91.0
52343;BME280;38277;51.972;4.624;2023-02-11T06:04:41;103560.0;;;7.6;91.0
52343;BME280;38277;51.972;4.624;2023-02-11T06:09:11;103560.0;;;7.6;91.0
52343;BME280;38277;51.972;4.624;2023-02-11T06:13:25;103560.0;;;7.6;91.0
52343;BME280;38277;51.972;4.624;2023-02-11T06:22:39;103570.0;;;7.6;91.0
52343;BME280;38277;51.972;4.624;2023-02-11T06:26:49;103570.0;;;7.5;91.0
52343;BME280;38277;51.972;4.624;2023-02-11T06:31:27;103560.0;;;7.5;91.0
52343;BME280;38277;51.972;4.624;2023-02-11T06:36:11;103570.0;;;7.5;91.0
52343;BME280;38277;51.972;4.624;2023-02-11T06:40:26;103570.0;;;7.5;91.0
52343;BME280;38277;51.972;4.624;2023-02-11T06:45:04;103580.0;;;7.5;91.0
52343;BME280;38277;51.972;4.624;2023-02-11T06:49:33;103570.0;;;7.5;91.5
52343;BME280;38277;51.972;4.624;2023-02-11T06:58:33;103580.0;;;7.5;91.5
52343;BME280;38277;51.972;4.624;2023-02-11T07:03:09;103580.0;;;7.5;91.5
52343;BME280;38277;51.972;4.624;2023-02-11T07:07:18;103580.0;;;7.5;92.0
52343;BME280;38277;51.972;4.624;2023-02-11T07:11:50;103590.0;;;7.5;92.0
52343;BME280;38277;51.972;4.624;2023-02-11T07:16:34;103590.0;;;7.5;92.0
52343;BME280;38277;51.972;4.624;2023-02-11T07:21:16;103590.0;;;7.5;92.0
52343;BME280;38277;51.972;4.624;2023-02-11T07:25:41;103590.0;;;7.5;92.0
52343;BME280;38277;51.972;4.624;2023-02-11T07:34:17;103600.0;;;7.5;92.0
52343;BME280;38277;51.972;4.624;2023-02-11T07:38:51;103600.0;;;7.5;92.0
52343;BME280;38277;51.972;4.624;2023-02-11T07:43:21;103610.0;;;7.5;92.0
52343;BME280;38277;51.972;4.624;2023-02-11T07:48:14;103600.0;;;7.5;92.0
52343;BME280;38277;51.972;4.624;2023-02-11T07:52:21;103620.0;;;7.6;92.0
52343;BME280;38277;51.972;4.624;2023-02-11T07:56:52;103620.0;;;7.7;92.0
52343;BME280;38277;51.972;4.624;2023-02-11T08:01:31;103620.0;;;7.7;92.0
52343;BME280;38277;51.972;4.624;2023-02-11T08:06:31;103620.0;;;7.8;92.0
52343;BME280;38277;51.972;4.624;2023-02-11T08:10:35;103630.0;;;7.8;91.5
52343;BME280;38277;51.972;4.624;2023-02-11T08:14:54;103640.0;;;7.8;91.0
52343;BME280;38277;51.972;4.624;2023-02-11T08:19:32;103640.0;;;7.8;91.0
52343;BME280;38277;51.972;4.624;2023-02-11T08:24:04;103640.0;;;7.8;91.0
52343;BME280;38277;51.972;4.624;2023-02-11T08:28:15;103640.0;;;7.8;91.0
52343;BME280;38277;51.972;4.624;2023-02-11T08:37:39;103650.0;;;8.0;91.0
52343;BME280;38277;51.972;4.624;2023-02-11T08:41:53;103670.0;;;8.0;91.0
52343;BME280;38277;51.972;4.624;2023-02-11T08:46:44;103660.0;;;8.1;91.5
52343;BME280;38277;51.972;4.624;2023-02-11T08:51:05;103670.0;;;8.3;91.5
52343;BME280;38277;51.972;4.624;2023-02-11T08:55:37;103670.0;;;8.3;91.5
52343;BME280;38277;51.972;4.624;2023-02-11T08:59:46;103670.0;;;8.5;91.0
52343;BME280;38277;51.972;4.624;2023-02-11T09:04:44;103670.0;;;8.5;91.0
52343;BME280;38277;51.972;4.624;2023-02-11T09:13:21;103670.0;;;8.7;90.5
52343;BME280;38277;51.972;4.624;2023-02-11T09:18:08;103670.0;;;8.8;90.5
52343;BME280;38277;51.972;4.624;2023-02-11T09:22:32;103670.0;;;8.9;90.5
52343;BME280;38277;51.972;4.624;2023-02-11T09:26:47;103670.0;;;9.0;90.5
52343;BME280;38277;51.972;4.624;2023-02-11T09:31:43;103670.0;;;9.1;90.5
52343;BME280;38277;51.972;4.624;2023-02-11T09:35:52;103670.0;;;9.3;90.0
52343;BME280;38277;51.972;4.624;2023-02-11T09:40:33;103680.0;;;9.5;90.0
52343;BME280;38277;51.972;4.624;2023-02-11T09:49:33;103680.0;;;9.7;89.5
52343;BME280;38277;51.972;4.624;2023-02-11T09:54:18;103680.0;;;9.8;89.0
52343;BME280;38277;51.972;4.624;2023-02-11T09:58:45;103670.0;;;9.9;89.0
52343;BME280;38277;51.972;4.624;2023-02-11T10:03:39;103680.0;;;10.1;88.5
52343;BME280;38277;51.972;4.624;2023-02-11T10:08:30;103690.0;;;10.3;87.5
52343;BME280;38277;51.972;4.624;2023-02-11T10:13:05;103690.0;;;10.5;87.0
52343;BME280;38277;51.972;4.624;2023-02-11T10:19:14;103700.0;;;10.8;85.5
52343;BME280;38277;51.972;4.624;2023-02-11T10:25:42;103710.0;;;11.0;82.5
52343;BME280;38277;51.972;4.624;2023-02-11T10:30:09;103710.0;;;11.1;82.0
52343;BME280;38277;51.972;4.624;2023-02-11T10:34:32;103720.0;;;11.2;81.0
52343;BME280;38277;51.972;4.624;2023-02-11T10:38:50;103720.0;;;11.3;80.0
52343;BME280;38277;51.972;4.624;2023-02-11T10:43:22;103720.0;;;11.4;79.5
52343;BME280;38277;51.972;4.624;2023-02-11T10:48:43;103740.0;;;11.6;78.0
52343;BME280;38277;51.972;4.624;2023-02-11T10:52:34;103740.0;;;11.7;78.0
52343;BME280;38277;51.972;4.624;2023-02-11T11:01:23;103760.0;;;11.8;76.0
52343;BME280;38277;51.972;4.624;2023-02-11T11:05:55;103760.0;;;11.9;76.0
52343;BME280;38277;51.972;4.624;2023-02-11T11:10:43;103750.0;;;12.0;75.0
52343;BME280;38277;51.972;4.624;2023-02-11T11:15:15;103750.0;;;12.0;74.5
52343;BME280;38277;51.972;4.624;2023-02-11T11:19:25;103760.0;;;12.0;74.5
52343;BME280;38277;51.972;4.624;2023-02-11T11:23:57;103770.0;;;12.1;74.0
52343;BME280;38277;51.972;4.624;2023-02-11T11:28:38;103760.0;;;12.1;74.0
52343;BME280;38277;51.972;4.624;2023-02-11T11:33:19;103760.0;;;12.0;73.0
52343;BME280;38277;51.972;4.624;2023-02-11T11:37:37;103760.0;;;12.1;73.5
52343;BME280;38277;51.972;4.624;2023-02-11T11:41:59;103760.0;;;12.1;73.0
52343;BME280;38277;51.972;4.624;2023-02-11T11:46:41;103760.0;;;12.1;72.5
52343;BME280;38277;51.972;4.624;2023-02-11T11:51:09;103750.0;;;12.1;72.0
52343;BME280;38277;51.972;4.624;2023-02-11T11:55:26;103760.0;;;12.0;72.0
52343;BME280;38277;51.972;4.624;2023-02-11T11:59:48;103750.0;;;12.0;72.0
52343;BME280;38277;51.972;4.624;2023-02-11T12:06:14;103770.0;;;12.0;72.5
52343;BME280;38277;51.972;4.624;2023-02-11T12:11:06;103780.0;;;12.0;72.0
52343;BME280;38277;51.972;4.624;2023-02-11T12:16:21;103780.0;;;12.0;72.0
52343;BME280;38277;51.972;4.624;2023-02-11T12:21:27;103780.0;;;12.0;72.0
52343;BME280;38277;51.972;4.624;2023-02-11T12:26:28;103770.0;;;12.1;71.5
52343;BME280;38277;51.972;4.624;2023-02-11T12:32:16;103770.0;;;12.2;71.5
52343;BME280;38277;51.972;4.624;2023-02-11T12:37:44;103770.0;;;12.2;71.5
52343;BME280;38277;51.972;4.624;2023-02-11T12:42:32;103760.0;;;12.3;71.0
52343;BME280;38277;51.972;4.624;2023-02-11T12:43:51;103760.0;;;12.3;71.0
52343;BME280;38277;51.972;4.624;2023-02-11T12:45:57;103760.0;;;12.5;71.0
52343;BME280;38277;51.972;4.624;2023-02-11T12:50:36;103760.0;;;12.6;70.5
52343;BME280;38277;51.972;4.624;2023-02-11T12:55:07;103750.0;;;12.8;69.5
52343;BME280;38277;51.972;4.624;2023-02-11T13:03:06;103750.0;;;13.0;68.5
52343;BME280;38277;51.972;4.624;2023-02-11T13:07:20;103750.0;;;12.9;68.0
52343;BME280;38277;51.972;4.624;2023-02-11T13:12:05;103750.0;;;13.0;68.0
52343;BME280;38277;51.972;4.624;2023-02-11T13:16:32;103750.0;;;13.0;67.0
52343;BME280;38277;51.972;4.624;2023-02-11T13:21:03;103740.0;;;13.1;67.5
52343;BME280;38277;51.972;4.624;2023-02-11T13:25:24;103720.0;;;13.3;66.5
52343;BME280;38277;51.972;4.624;2023-02-11T13:30:32;103730.0;;;13.5;65.5
52343;BME280;38277;51.972;4.624;2023-02-11T13:39:03;103740.0;;;13.4;64.5
52343;BME280;38277;51.972;4.624;2023-02-11T13:43:28;103730.0;;;13.3;64.0
52343;BME280;38277;51.972;4.624;2023-02-11T13:47:56;103720.0;;;13.2;64.5
52343;BME280;38277;51.972;4.624;2023-02-11T13:52:24;103720.0;;;13.1;64.5
52343;BME280;38277;51.972;4.624;2023-02-11T13:57:35;103720.0;;;13.1;64.5
52343;BME280;38277;51.972;4.624;2023-02-11T14:03:25;103720.0;;;13.1;64.5
52343;BME280;38277;51.972;4.624;2023-02-11T14:06:16;103730.0;;;13.1;64.0
52343;BME280;38277;51.972;4.624;2023-02-11T14:11:04;103720.0;;;13.0;64.0
52343;BME280;38277;51.972;4.624;2023-02-11T14:15:20;103730.0;;;13.0;64.0
52343;BME280;38277;51.972;4.624;2023-02-11T14:21:10;103730.0;;;12.9;64.0
52343;BME280;38277;51.972;4.624;2023-02-11T14:23:46;103730.0;;;12.8;64.0
52343;BME280;38277;51.972;4.624;2023-02-11T14:28:31;103720.0;;;12.7;64.5
52343;BME280;38277;51.972;4.624;2023-02-11T14:33:11;103720.0;;;12.7;64.5
52343;BME280;38277;51.972;4.624;2023-02-11T14:40:29;103720.0;;;12.6;64.5
52343;BME280;38277;51.972;4.624;2023-02-11T14:42:18;103730.0;;;12.6;64.5
52343;BME280;38277;51.972;4.624;2023-02-11T14:46:45;103740.0;;;12.5;64.5
52343;BME280;38277;51.972;4.624;2023-02-11T14:51:06;103750.0;;;12.3;65.0
52343;BME280;38277;51.972;4.624;2023-02-11T14:57:19;103760.0;;;12.3;65.0
52343;BME280;38277;51.972;4.624;2023-02-11T14:59:57;103750.0;;;12.3;65.5
52343;BME280;38277;51.972;4.624;2023-02-11T15:04:33;103750.0;;;12.3;65.0
52343;BME280;38277;51.972;4.624;2023-02-11T15:08:54;103760.0;;;12.2;65.0
52343;BME280;38277;51.972;4.624;2023-02-11T15:15:21;103750.0;;;12.2;65.5
52343;BME280;38277;51.972;4.624;2023-02-11T15:17:49;103770.0;;;12.1;65.5
52343;BME280;38277;51.972;4.624;2023-02-11T15:22:28;103770.0;;;12.1;65.5
52343;BME280;38277;51.972;4.624;2023-02-11T15:27:12;103760.0;;;12.1;66.0
52343;BME280;38277;51.972;4.624;2023-02-11T15:33:18;103770.0;;;12.1;66.0
52343;BME280;38277;51.972;4.624;2023-02-11T15:35:48;103770.0;;;12.0;66.0
52343;BME280;38277;51.972;4.624;2023-02-11T15:40:28;103770.0;;;11.9;66.0
52343;BME280;38277;51.972;4.624;2023-02-11T15:45:09;103760.0;;;11.8;66.0
52343;BME280;38277;51.972;4.624;2023-02-11T15:51:12;103770.0;;;11.8;66.0
52343;BME280;38277;51.972;4.624;2023-02-11T15:53:57;103770.0;;;11.7;66.5
52343;BME280;38277;51.972;4.624;2023-02-11T15:58:44;103770.0;;;11.7;66.5
52343;BME280;38277;51.972;4.624;2023-02-11T16:03:03;103770.0;;;11.6;67.0
52343;BME280;38277;51.972;4.624;2023-02-11T16:09:19;103780.0;;;11.6;67.0
52343;BME280;38277;51.972;4.624;2023-02-11T16:12:22;103780.0;;;11.5;67.0
52343;BME280;38277;51.972;4.624;2023-02-11T16:16:30;103780.0;;;11.5;67.0
52343;BME280;38277;51.972;4.624;2023-02-11T16:21:02;103790.0;;;11.4;67.5
52343;BME280;38277;51.972;4.624;2023-02-11T16:27:00;103790.0;;;11.3;67.5
52343;BME280;38277;51.972;4.624;2023-02-11T16:30:00;103800.0;;;11.2;67.5
52343;BME280;38277;51.972;4.624;2023-02-11T16:34:24;103810.0;;;11.2;68.0
52343;BME280;38277;51.972;4.624;2023-02-11T16:38:53;103810.0;;;11.1;68.0
52343;BME280;38277;51.972;4.624;2023-02-11T16:45:03;103820.0;;;11.1;68.0
52343;BME280;38277;51.972;4.624;2023-02-11T16:48:16;103830.0;;;11.1;68.5
52343;BME280;38277;51.972;4.624;2023-02-11T16:52:21;103830.0;;;11.0;68.5
52343;BME280;38277;51.972;4.624;2023-02-11T16:57:04;103820.0;;;11.0;68.5
52343;BME280;38277;51.972;4.624;2023-02-11T17:03:17;103820.0;;;10.9;69.0
52343;BME280;38277;51.972;4.624;2023-02-11T17:10:44;103820.0;;;10.9;69.0
52343;BME280;38277;51.972;4.624;2023-02-11T17:15:15;103820.0;;;10.9;69.0
52343;BME280;38277;51.972;4.624;2023-02-11T17:19:27;103830.0;;;10.8;69.5
52343;BME280;38277;51.972;4.624;2023-02-11T17:24:11;103830.0;;;10.8;69.5
52343;BME280;38277;51.972;4.624;2023-02-11T17:32:47;103850.0;;;10.7;70.0
52343;BME280;38277;51.972;4.624;2023-02-11T17:37:42;103850.0;;;10.7;70.0
52343;BME280;38277;51.972;4.624;2023-02-11T17:41:56;103850.0;;;10.7;70.5
52343;BME280;38277;51.972;4.624;2023-02-11T17:46:23;103850.0;;;10.7;70.5
52343;BME280;38277;51.972;4.624;2023-02-11T17:51:20;103850.0;;;10.7;70.5
52343;BME280;38277;51.972;4.624;2023-02-11T17:55:38;103860.0;;;10.7;70.5
52343;BME280;38277;51.972;4.624;2023-02-11T17:59:48;103860.0;;;10.6;71.0
52343;BME280;38277;51.972;4.624;2023-02-11T18:08:54;103870.0;;;10.6;71.0
52343;BME280;38277;51.972;4.624;2023-02-11T18:13:31;103870.0;;;10.5;71.5
52343;BME280;38277;51.972;4.624;2023-02-11T18:18:04;103870.0;;;10.5;71.5
52343;BME280;38277;51.972;4.624;2023-02-11T18:22:22;103880.0;;;10.5;71.5
52343;BME280;38277;51.972;4.624;2023-02-11T18:26:51;103880.0;;;10.5;72.0
52343;BME280;38277;51.972;4.624;2023-02-11T18:31:29;103890.0;;;10.5;72.0
52343;BME280;38277;51.972;4.624;2023-02-11T18:35:53;103880.0;;;10.5;72.0
52343;BME280;38277;51.972;4.624;2023-02-11T18:40:18;103880.0;;;10.5;72.0
52343;BME280;38277;51.972;4.624;2023-02-11T18:44:51;103890.0;;;10.4;72.0
52343;BME280;38277;51.972;4.624;2023-02-11T18:49:24;103900.0;;;10.4;72.5
52343;BME280;38277;51.972;4.624;2023-02-11T18:53:59;103900.0;;;10.4;72.5
52343;BME280;38277;51.972;4.624;2023-02-11T18:58:24;103900.0;;;10.4;72.5
52343;BME280;38277;51.972;4.624;2023-02-11T19:03:11;103900.0;;;10.4;72.5
52343;BME280;38277;51.972;4.624;2023-02-11T19:07:24;103900.0;;;10.4;72.5
52343;BME280;38277;51.972;4.624;2023-02-11T19:12:05;103900.0;;;10.4;72.5
52343;BME280;38277;51.972;4.624;2023-02-11T19:18:14;103900.0;;;10.4;72.5
52343;BME280;38277;51.972;4.624;2023-02-11T19:20:58;103910.0;;;10.3;73.0
52343;BME280;38277;51.972;4.624;2023-02-11T19:25:32;103900.0;;;10.3;73.0
52343;BME280;38277;51.972;4.624;2023-02-11T19:30:00;103910.0;;;10.3;73.0
52343;BME280;38277;51.972;4.624;2023-02-11T19:34:24;103900.0;;;10.3;73.0
52343;BME280;38277;51.972;4.624;2023-02-11T19:39:12;103910.0;;;10.3;73.0
52343;BME280;38277;51.972;4.624;2023-02-11T19:43:24;103900.0;;;10.2;73.0
52343;BME280;38277;51.972;4.624;2023-02-11T19:52:19;103910.0;;;10.2;73.5
52343;BME280;38277;51.972;4.624;2023-02-11T19:56:55;103920.0;;;10.2;73.5
52343;BME280;38277;51.972;4.624;2023-02-11T20:01:39;103930.0;;;10.2;73.5
52343;BME280;38277;51.972;4.624;2023-02-11T20:05:58;103930.0;;;10.2;73.5
52343;BME280;38277;51.972;4.624;2023-02-11T20:10:38;103930.0;;;10.2;73.5
52343;BME280;38277;51.972;4.624;2023-02-11T20:15:10;103930.0;;;10.2;73.5
52343;BME280;38277;51.972;4.624;2023-02-11T20:19:33;103940.0;;;10.3;73.0
52343;BME280;38277;51.972;4.624;2023-02-11T20:23:54;103940.0;;;10.3;73.0
52343;BME280;38277;51.972;4.624;2023-02-11T20:28:16;103950.0;;;10.3;73.0
52343;BME280;38277;51.972;4.624;2023-02-11T20:33:07;103950.0;;;10.3;73.0
52343;BME280;38277;51.972;4.624;2023-02-11T20:37:39;103960.0;;;10.3;73.0
52343;BME280;38277;51.972;4.624;2023-02-11T20:41:53;103950.0;;;10.3;73.0
52343;BME280;38277;51.972;4.624;2023-02-11T20:46:31;103960.0;;;10.3;73.0
52343;BME280;38277;51.972;4.624;2023-02-11T20:51:11;103970.0;;;10.3;73.0
52343;BME280;38277;51.972;4.624;2023-02-11T20:55:18;103970.0;;;10.3;73.0
52343;BME280;38277;51.972;4.624;2023-02-11T20:59:46;103980.0;;;10.3;72.5
52343;BME280;38277;51.972;4.624;2023-02-11T21:09:15;104000.0;;;10.3;73.0
52343;BME280;38277;51.972;4.624;2023-02-11T21:13:24;104000.0;;;10.2;73.0
52343;BME280;38277;51.972;4.624;2023-02-11T21:17:59;103990.0;;;10.2;73.0
52343;BME280;38277;51.972;4.624;2023-02-11T21:22:16;103990.0;;;10.3;73.0
52343;BME280;38277;51.972;4.624;2023-02-11T21:26:52;103990.0;;;10.3;72.5
52343;BME280;38277;51.972;4.624;2023-02-11T21:31:28;104000.0;;;10.2;72.5
52343;BME280;38277;51.972;4.624;2023-02-11T21:36:01;104010.0;;;10.3;72.5
52343;BME280;38277;51.972;4.624;2023-02-11T21:45:14;104020.0;;;10.3;72.5
52343;BME280;38277;51.972;4.624;2023-02-11T21:49:43;104020.0;;;10.3;72.5
52343;BME280;38277;51.972;4.624;2023-02-11T21:53:59;104020.0;;;10.2;73.0
52343;BME280;38277;51.972;4.624;2023-02-11T21:58:29;104030.0;;;10.2;73.0
52343;BME280;38277;51.972;4.624;2023-02-11T22:02:47;104030.0;;;10.3;73.0
52343;BME280;38277;51.972;4.624;2023-02-11T22:07:27;104020.0;;;10.3;72.5
52343;BME280;38277;51.972;4.624;2023-02-11T22:11:53;104020.0;;;10.3;72.5
52343;BME280;38277;51.972;4.624;2023-02-11T22:21:05;104020.0;;;10.3;72.5
52343;BME280;38277;51.972;4.624;2023-02-11T22:25:26;104020.0;;;10.3;72.5
52343;BME280;38277;51.972;4.624;2023-02-11T22:29:55;104030.0;;;10.3;72.5
52343;BME280;38277;51.972;4.624;2023-02-11T22:34:24;104030.0;;;10.3;72.0
52343;BME280;38277;51.972;4.624;2023-02-11T22:38:52;104020.0;;;10.3;72.0
52343;BME280;38277;51.972;4.624;2023-02-11T22:43:29;104030.0;;;10.3;72.0
52343;BME280;38277;51.972;4.624;2023-02-11T22:48:09;104030.0;;;10.3;72.0
52343;BME280;38277;51.972;4.624;2023-02-11T22:57:06;104040.0;;;10.3;72.0
52343;BME280;38277;51.972;4.624;2023-02-11T23:01:24;104030.0;;;10.3;72.0
52343;BME280;38277;51.972;4.624;2023-02-11T23:06:09;104040.0;;;10.3;72.5
52343;BME280;38277;51.972;4.624;2023-02-11T23:10:39;104030.0;;;10.3;72.5
52343;BME280;38277;51.972;4.624;2023-02-11T23:19:34;104030.0;;;10.2;72.5
52343;BME280;38277;51.972;4.624;2023-02-11T23:23:45;104040.0;;;10.2;72.5
52343;BME280;38277;51.972;4.624;2023-02-11T23:33:00;104050.0;;;10.2;72.5
52343;BME280;38277;51.972;4.624;2023-02-11T23:37:36;104040.0;;;10.2;72.5
52343;BME280;38277;51.972;4.624;2023-02-11T23:42:01;104050.0;;;10.1;72.5
52343;BME280;38277;51.972;4.624;2023-02-11T23:46:15;104050.0;;;10.1;72.5
52343;BME280;38277;51.972;4.624;2023-02-11T23:55:24;104050.0;;;10.1;73.0
